Terminal Aerodrome Forecast
Issued by NWS Charleston, WV

Current Version | Previous Version | Text Only | Print | Product List | Glossary Off
Versions: 1 2 3 4 5 6 7 8 9 10 11 12 13 14 15 16 17 18 19 20 21 22 23

000
FTUS41 KRLX 160250 AAB
TAFHTS
TAF AMD
KHTS 160250Z 1603/1624 32009G15KT P6SM BKN020 OVC035
     FM161100 34007KT P6SM SCT020
     FM161600 34005KT P6SM FEW200=

USA.gov is the U.S. government's official web portal to all federal, state and local government web resources and services.